sensor_id;sensor_type;location;lat;lon;timestamp;temperature;humidity
67893;DHT22;54688;52.376;16.744;2023-04-25T00:00:20;7.3;74.8
67893;DHT22;54688;52.376;16.744;2023-04-25T00:03:54;7.3;75.1
67893;DHT22;54688;52.376;16.744;2023-04-25T00:06:56;7.2;74.3
67893;DHT22;54688;52.376;16.744;2023-04-25T00:09:58;7.3;75.3
67893;DHT22;54688;52.376;16.744;2023-04-25T00:13:00;7.2;75.6
67893;DHT22;54688;52.376;16.744;2023-04-25T00:16:02;7.1;75.5
67893;DHT22;54688;52.376;16.744;2023-04-25T00:19:04;7;75.3
67893;DHT22;54688;52.376;16.744;2023-04-25T00:22:06;7.1;75.6
67893;DHT22;54688;52.376;16.744;2023-04-25T00:25:08;7;75.6
67893;DHT22;54688;52.376;16.744;2023-04-25T00:28:10;7;75.8
67893;DHT22;54688;52.376;16.744;2023-04-25T00:31:12;6.9;76
67893;DHT22;54688;52.376;16.744;2023-04-25T00:34:14;6.8;76.3
67893;DHT22;54688;52.376;16.744;2023-04-25T00:37:16;6.8;76.5
67893;DHT22;54688;52.376;16.744;2023-04-25T00:40:18;6.7;76.8
67893;DHT22;54688;52.376;16.744;2023-04-25T00:43:20;6.7;77.1
67893;DHT22;54688;52.376;16.744;2023-04-25T00:46:21;6.6;77.3
67893;DHT22;54688;52.376;16.744;2023-04-25T00:49:23;6.5;77.8
67893;DHT22;54688;52.376;16.744;2023-04-25T00:52:25;6.5;78.1
67893;DHT22;54688;52.376;16.744;2023-04-25T00:55:27;6.4;78.5
67893;DHT22;54688;52.376;16.744;2023-04-25T00:58:29;6.3;78.8
67893;DHT22;54688;52.376;16.744;2023-04-25T01:01:31;6.3;79.1
67893;DHT22;54688;52.376;16.744;2023-04-25T01:04:34;6.2;79.4
67893;DHT22;54688;52.376;16.744;2023-04-25T01:07:36;6.2;79.7
67893;DHT22;54688;52.376;16.744;2023-04-25T01:10:38;6.1;79.8
67893;DHT22;54688;52.376;16.744;2023-04-25T01:13:40;6.1;80
67893;DHT22;54688;52.376;16.744;2023-04-25T01:16:42;6.1;80.1
67893;DHT22;54688;52.376;16.744;2023-04-25T01:19:43;6;80.2
67893;DHT22;54688;52.376;16.744;2023-04-25T01:22:45;6;80.2
67893;DHT22;54688;52.376;16.744;2023-04-25T01:25:47;5.9;80.2
67893;DHT22;54688;52.376;16.744;2023-04-25T01:28:50;5.9;80.4
67893;DHT22;54688;52.376;16.744;2023-04-25T01:31:53;5.8;80.3
67893;DHT22;54688;52.376;16.744;2023-04-25T01:34:56;5.8;80.2
67893;DHT22;54688;52.376;16.744;2023-04-25T01:37:58;5.8;80
67893;DHT22;54688;52.376;16.744;2023-04-25T01:41:01;5.8;79.8
67893;DHT22;54688;52.376;16.744;2023-04-25T01:44:03;5.8;79.5
67893;DHT22;54688;52.376;16.744;2023-04-25T01:47:05;5.8;79.3
67893;DHT22;54688;52.376;16.744;2023-04-25T01:50:08;5.7;79.1
67893;DHT22;54688;52.376;16.744;2023-04-25T01:53:11;5.7;79.1
67893;DHT22;54688;52.376;16.744;2023-04-25T01:56:15;5.7;79.2
67893;DHT22;54688;52.376;16.744;2023-04-25T01:59:18;5.7;79.2
67893;DHT22;54688;52.376;16.744;2023-04-25T02:02:20;5.6;79.3
67893;DHT22;54688;52.376;16.744;2023-04-25T02:05:22;5.6;79.4
67893;DHT22;54688;52.376;16.744;2023-04-25T02:08:24;5.6;79.4
67893;DHT22;54688;52.376;16.744;2023-04-25T02:11:26;5.6;79.3
67893;DHT22;54688;52.376;16.744;2023-04-25T02:17:27;5.6;79.1
67893;DHT22;54688;52.376;16.744;2023-04-25T02:20:29;5.5;79.1
67893;DHT22;54688;52.376;16.744;2023-04-25T02:23:31;5.5;79.2
67893;DHT22;54688;52.376;16.744;2023-04-25T02:26:33;5.5;79.1
67893;DHT22;54688;52.376;16.744;2023-04-25T02:29:35;5.5;79.1
67893;DHT22;54688;52.376;16.744;2023-04-25T02:32:37;5.5;79.2
67893;DHT22;54688;52.376;16.744;2023-04-25T02:35:39;5.5;79.3
67893;DHT22;54688;52.376;16.744;2023-04-25T02:38:41;5.5;79.4
67893;DHT22;54688;52.376;16.744;2023-04-25T02:41:43;5.5;79.4
67893;DHT22;54688;52.376;16.744;2023-04-25T02:44:45;5.5;79.3
67893;DHT22;54688;52.376;16.744;2023-04-25T02:47:48;5.5;79.2
67893;DHT22;54688;52.376;16.744;2023-04-25T02:50:50;5.5;79.2
67893;DHT22;54688;52.376;16.744;2023-04-25T02:53:52;5.5;79.2
67893;DHT22;54688;52.376;16.744;2023-04-25T02:56:54;5.5;79.2
67893;DHT22;54688;52.376;16.744;2023-04-25T02:59:56;5.5;79.2
67893;DHT22;54688;52.376;16.744;2023-04-25T03:02:58;5.4;79.3
67893;DHT22;54688;52.376;16.744;2023-04-25T03:06:00;5.4;79.3
67893;DHT22;54688;52.376;16.744;2023-04-25T03:09:02;5.4;79.4
67893;DHT22;54688;52.376;16.744;2023-04-25T03:12:05;5.4;79.4
67893;DHT22;54688;52.376;16.744;2023-04-25T03:15:08;5.4;79.4
67893;DHT22;54688;52.376;16.744;2023-04-25T03:18:10;5.4;79.4
67893;DHT22;54688;52.376;16.744;2023-04-25T03:21:12;5.4;79.5
67893;DHT22;54688;52.376;16.744;2023-04-25T03:24:14;5.4;79.5
67893;DHT22;54688;52.376;16.744;2023-04-25T03:27:16;5.4;79.5
67893;DHT22;54688;52.376;16.744;2023-04-25T03:30:18;5.4;79.7
67893;DHT22;54688;52.376;16.744;2023-04-25T03:33:20;5.3;79.7
67893;DHT22;54688;52.376;16.744;2023-04-25T03:36:22;5.3;79.9
67893;DHT22;54688;52.376;16.744;2023-04-25T03:39:26;5.3;80
67893;DHT22;54688;52.376;16.744;2023-04-25T03:42:27;5.3;80.1
67893;DHT22;54688;52.376;16.744;2023-04-25T03:45:29;5.3;80.2
67893;DHT22;54688;52.376;16.744;2023-04-25T03:48:32;5.3;80.3
67893;DHT22;54688;52.376;16.744;2023-04-25T03:51:33;5.3;80.5
67893;DHT22;54688;52.376;16.744;2023-04-25T03:54:36;5.3;80.6
67893;DHT22;54688;52.376;16.744;2023-04-25T03:57:38;5.3;80.7
67893;DHT22;54688;52.376;16.744;2023-04-25T04:00:40;5.3;80.7
67893;DHT22;54688;52.376;16.744;2023-04-25T04:03:42;5.3;80.9
67893;DHT22;54688;52.376;16.744;2023-04-25T04:06:44;5.3;81
67893;DHT22;54688;52.376;16.744;2023-04-25T04:09:47;5.3;81.2
67893;DHT22;54688;52.376;16.744;2023-04-25T04:12:49;5.4;81.3
67893;DHT22;54688;52.376;16.744;2023-04-25T04:15:50;5.4;81.2
67893;DHT22;54688;52.376;16.744;2023-04-25T04:18:52;5.4;81.6
67893;DHT22;54688;52.376;16.744;2023-04-25T04:21:54;5.5;81.1
67893;DHT22;54688;52.376;16.744;2023-04-25T04:24:56;5.5;80.9
67893;DHT22;54688;52.376;16.744;2023-04-25T04:27:58;5.6;80.8
67893;DHT22;54688;52.376;16.744;2023-04-25T04:31:00;5.6;80.6
67893;DHT22;54688;52.376;16.744;2023-04-25T04:34:02;5.6;80.4
67893;DHT22;54688;52.376;16.744;2023-04-25T04:37:04;5.7;80.3
67893;DHT22;54688;52.376;16.744;2023-04-25T04:40:07;5.7;80.1
67893;DHT22;54688;52.376;16.744;2023-04-25T04:43:10;5.7;80
67893;DHT22;54688;52.376;16.744;2023-04-25T04:46:12;5.7;79.9
67893;DHT22;54688;52.376;16.744;2023-04-25T04:49:14;5.8;79.8
67893;DHT22;54688;52.376;16.744;2023-04-25T04:52:16;5.8;80.1
67893;DHT22;54688;52.376;16.744;2023-04-25T04:55:18;5.9;79.5
67893;DHT22;54688;52.376;16.744;2023-04-25T04:58:21;5.9;79.5
67893;DHT22;54688;52.376;16.744;2023-04-25T05:01:23;6;79.4
67893;DHT22;54688;52.376;16.744;2023-04-25T05:04:25;6;79.3
67893;DHT22;54688;52.376;16.744;2023-04-25T05:07:27;6;79.1
67893;DHT22;54688;52.376;16.744;2023-04-25T05:10:29;6.1;79
67893;DHT22;54688;52.376;16.744;2023-04-25T05:13:31;6.2;78.8
67893;DHT22;54688;52.376;16.744;2023-04-25T05:16:33;6.2;78.6
67893;DHT22;54688;52.376;16.744;2023-04-25T05:19:36;6.2;78.2
67893;DHT22;54688;52.376;16.744;2023-04-25T05:22:38;6.4;77.9
67893;DHT22;54688;52.376;16.744;2023-04-25T05:25:40;6.5;77.1
67893;DHT22;54688;52.376;16.744;2023-04-25T05:28:42;6.5;76.8
67893;DHT22;54688;52.376;16.744;2023-04-25T05:31:44;6.5;76.5
67893;DHT22;54688;52.376;16.744;2023-04-25T05:34:46;6.6;76.3
67893;DHT22;54688;52.376;16.744;2023-04-25T05:37:48;6.7;76
67893;DHT22;54688;52.376;16.744;2023-04-25T05:40:50;6.8;75.6
67893;DHT22;54688;52.376;16.744;2023-04-25T05:43:52;6.8;75.5
67893;DHT22;54688;52.376;16.744;2023-04-25T05:46:54;6.9;75.2
67893;DHT22;54688;52.376;16.744;2023-04-25T05:49:56;7;74.9
67893;DHT22;54688;52.376;16.744;2023-04-25T05:52:59;7.1;74
67893;DHT22;54688;52.376;16.744;2023-04-25T05:56:01;7.2;73.7
67893;DHT22;54688;52.376;16.744;2023-04-25T05:59:03;7.3;73.2
67893;DHT22;54688;52.376;16.744;2023-04-25T06:02:05;7.3;72.8
67893;DHT22;54688;52.376;16.744;2023-04-25T06:05:08;7.4;71.9
67893;DHT22;54688;52.376;16.744;2023-04-25T06:08:10;7.5;71.6
67893;DHT22;54688;52.376;16.744;2023-04-25T06:11:12;7.5;71.4
67893;DHT22;54688;52.376;16.744;2023-04-25T06:14:14;7.5;70.6
67893;DHT22;54688;52.376;16.744;2023-04-25T06:17:16;7.5;70.8
67893;DHT22;54688;52.376;16.744;2023-04-25T06:20:19;7.5;70.8
67893;DHT22;54688;52.376;16.744;2023-04-25T06:23:20;7.6;70.9
67893;DHT22;54688;52.376;16.744;2023-04-25T06:26:22;7.7;70.3
67893;DHT22;54688;52.376;16.744;2023-04-25T06:29:24;7.7;70.2
67893;DHT22;54688;52.376;16.744;2023-04-25T06:32:26;7.7;69.6
67893;DHT22;54688;52.376;16.744;2023-04-25T06:35:28;7.8;69.4
67893;DHT22;54688;52.376;16.744;2023-04-25T06:38:30;7.9;69.7
67893;DHT22;54688;52.376;16.744;2023-04-25T06:41:32;7.9;69.7
67893;DHT22;54688;52.376;16.744;2023-04-25T06:44:34;8;68.7
67893;DHT22;54688;52.376;16.744;2023-04-25T06:47:35;8.1;68.4
67893;DHT22;54688;52.376;16.744;2023-04-25T06:50:37;8.2;68.4
67893;DHT22;54688;52.376;16.744;2023-04-25T06:53:39;8.3;67.7
67893;DHT22;54688;52.376;16.744;2023-04-25T06:56:41;8.4;67.2
67893;DHT22;54688;52.376;16.744;2023-04-25T06:59:43;8.5;67.1
67893;DHT22;54688;52.376;16.744;2023-04-25T07:02:45;8.5;66.7
67893;DHT22;54688;52.376;16.744;2023-04-25T07:05:47;8.6;66.7
67893;DHT22;54688;52.376;16.744;2023-04-25T07:08:48;8.7;66.2
67893;DHT22;54688;52.376;16.744;2023-04-25T07:11:50;8.8;66.3
67893;DHT22;54688;52.376;16.744;2023-04-25T07:14:53;8.8;65.6
67893;DHT22;54688;52.376;16.744;2023-04-25T07:17:55;9;65.6
67893;DHT22;54688;52.376;16.744;2023-04-25T07:20:58;9;64.8
67893;DHT22;54688;52.376;16.744;2023-04-25T07:24:00;9.1;65
67893;DHT22;54688;52.376;16.744;2023-04-25T07:27:02;9.2;64.4
67893;DHT22;54688;52.376;16.744;2023-04-25T07:30:07;9.3;64
67893;DHT22;54688;52.376;16.744;2023-04-25T07:33:09;9.3;64
67893;DHT22;54688;52.376;16.744;2023-04-25T07:36:11;9.4;63.2
67893;DHT22;54688;52.376;16.744;2023-04-25T07:39:13;9.5;63.7
67893;DHT22;54688;52.376;16.744;2023-04-25T07:42:14;9.5;62.9
67893;DHT22;54688;52.376;16.744;2023-04-25T07:45:16;9.6;63
67893;DHT22;54688;52.376;16.744;2023-04-25T07:48:19;9.7;62.9
67893;DHT22;54688;52.376;16.744;2023-04-25T07:51:21;9.8;62.3
67893;DHT22;54688;52.376;16.744;2023-04-25T07:54:23;9.8;62.3
67893;DHT22;54688;52.376;16.744;2023-04-25T07:57:24;10;61.5
67893;DHT22;54688;52.376;16.744;2023-04-25T08:00:26;9.9;60.8
67893;DHT22;54688;52.376;16.744;2023-04-25T08:03:28;10;60.8
67893;DHT22;54688;52.376;16.744;2023-04-25T08:06:31;10.1;60.1
67893;DHT22;54688;52.376;16.744;2023-04-25T08:09:34;10.2;59.6
67893;DHT22;54688;52.376;16.744;2023-04-25T08:12:35;10.2;60.1
67893;DHT22;54688;52.376;16.744;2023-04-25T08:15:37;10.3;60.1
67893;DHT22;54688;52.376;16.744;2023-04-25T08:18:39;10.4;59.7
67893;DHT22;54688;52.376;16.744;2023-04-25T08:21:41;10.5;59.4
67893;DHT22;54688;52.376;16.744;2023-04-25T08:24:43;10.6;58.5
67893;DHT22;54688;52.376;16.744;2023-04-25T08:27:45;10.7;58.9
67893;DHT22;54688;52.376;16.744;2023-04-25T08:30:47;10.7;58.1
67893;DHT22;54688;52.376;16.744;2023-04-25T08:33:49;10.8;58.9
67893;DHT22;54688;52.376;16.744;2023-04-25T08:36:52;10.9;58.8
67893;DHT22;54688;52.376;16.744;2023-04-25T08:39:54;11;58.2
67893;DHT22;54688;52.376;16.744;2023-04-25T08:42:56;11;57.6
67893;DHT22;54688;52.376;16.744;2023-04-25T08:45:59;11.1;57.5
67893;DHT22;54688;52.376;16.744;2023-04-25T08:49:02;11.1;57.3
67893;DHT22;54688;52.376;16.744;2023-04-25T08:52:05;11.1;56.7
67893;DHT22;54688;52.376;16.744;2023-04-25T08:55:07;11;56.5
67893;DHT22;54688;52.376;16.744;2023-04-25T08:58:11;11.1;55.4
67893;DHT22;54688;52.376;16.744;2023-04-25T09:01:13;11;55.6
67893;DHT22;54688;52.376;16.744;2023-04-25T09:04:15;11;56.2
67893;DHT22;54688;52.376;16.744;2023-04-25T09:07:18;11;56.3
67893;DHT22;54688;52.376;16.744;2023-04-25T09:10:20;11;56
67893;DHT22;54688;52.376;16.744;2023-04-25T09:13:24;11;56.2
67893;DHT22;54688;52.376;16.744;2023-04-25T09:16:26;11.1;56.7
67893;DHT22;54688;52.376;16.744;2023-04-25T09:19:29;11.2;56.5
67893;DHT22;54688;52.376;16.744;2023-04-25T09:22:32;11.2;55.4
67893;DHT22;54688;52.376;16.744;2023-04-25T09:25:34;11.2;55.5
67893;DHT22;54688;52.376;16.744;2023-04-25T09:28:36;11.1;55.8
67893;DHT22;54688;52.376;16.744;2023-04-25T09:31:38;11.1;56.2
67893;DHT22;54688;52.376;16.744;2023-04-25T09:34:40;11;56.2
67893;DHT22;54688;52.376;16.744;2023-04-25T09:37:43;11;56.5
67893;DHT22;54688;52.376;16.744;2023-04-25T09:40:47;11.1;55.6
67893;DHT22;54688;52.376;16.744;2023-04-25T09:43:49;11.1;56.2
67893;DHT22;54688;52.376;16.744;2023-04-25T09:46:51;11.2;55.5
67893;DHT22;54688;52.376;16.744;2023-04-25T09:49:54;11.4;55.2
67893;DHT22;54688;52.376;16.744;2023-04-25T09:53:04;11.5;54.8
67893;DHT22;54688;52.376;16.744;2023-04-25T09:56:07;11.6;53.5
67893;DHT22;54688;52.376;16.744;2023-04-25T09:59:10;11.6;53.1
67893;DHT22;54688;52.376;16.744;2023-04-25T10:02:13;11.5;52.9
67893;DHT22;54688;52.376;16.744;2023-04-25T10:05:16;11.5;53.8
67893;DHT22;54688;52.376;16.744;2023-04-25T10:08:19;11.5;54.6
67893;DHT22;54688;52.376;16.744;2023-04-25T10:11:21;11.6;54.6
67893;DHT22;54688;52.376;16.744;2023-04-25T10:14:26;11.5;54.2
67893;DHT22;54688;52.376;16.744;2023-04-25T10:17:28;11.5;54.1
67893;DHT22;54688;52.376;16.744;2023-04-25T10:20:31;11.5;53.7
67893;DHT22;54688;52.376;16.744;2023-04-25T10:23:34;11.5;55.4
67893;DHT22;54688;52.376;16.744;2023-04-25T10:26:38;11.6;53.1
67893;DHT22;54688;52.376;16.744;2023-04-25T10:29:41;11.6;53.5
67893;DHT22;54688;52.376;16.744;2023-04-25T10:32:45;11.7;53.1
67893;DHT22;54688;52.376;16.744;2023-04-25T10:35:49;11.8;53.3
67893;DHT22;54688;52.376;16.744;2023-04-25T10:38:51;11.8;52.3
67893;DHT22;54688;52.376;16.744;2023-04-25T10:41:56;12;52.3
67893;DHT22;54688;52.376;16.744;2023-04-25T10:45:00;12;52.1
67893;DHT22;54688;52.376;16.744;2023-04-25T10:48:03;12;52.1
67893;DHT22;54688;52.376;16.744;2023-04-25T10:51:08;11.9;51.9
67893;DHT22;54688;52.376;16.744;2023-04-25T10:54:10;11.9;51.2
67893;DHT22;54688;52.376;16.744;2023-04-25T10:57:29;11.8;50.1
67893;DHT22;54688;52.376;16.744;2023-04-25T11:00:32;11.8;51.4
67893;DHT22;54688;52.376;16.744;2023-04-25T11:03:38;11.9;50.7
67893;DHT22;54688;52.376;16.744;2023-04-25T11:06:44;12;51
67893;DHT22;54688;52.376;16.744;2023-04-25T11:09:56;12.1;50.4
67893;DHT22;54688;52.376;16.744;2023-04-25T11:12:58;12.1;50.1
67893;DHT22;54688;52.376;16.744;2023-04-25T11:16:00;12.1;49.8
67893;DHT22;54688;52.376;16.744;2023-04-25T11:19:02;12.2;50.9
67893;DHT22;54688;52.376;16.744;2023-04-25T11:22:04;12.2;49.2
67893;DHT22;54688;52.376;16.744;2023-04-25T11:25:06;12.3;50.1
67893;DHT22;54688;52.376;16.744;2023-04-25T11:28:08;12.2;50.5
67893;DHT22;54688;52.376;16.744;2023-04-25T11:31:10;12.2;50.1
67893;DHT22;54688;52.376;16.744;2023-04-25T11:34:11;12;50.4
67893;DHT22;54688;52.376;16.744;2023-04-25T11:37:19;12;51.1
67893;DHT22;54688;52.376;16.744;2023-04-25T11:40:21;11.8;50.7
67893;DHT22;54688;52.376;16.744;2023-04-25T11:43:23;11.7;53
67893;DHT22;54688;52.376;16.744;2023-04-25T11:49:23;11.4;55.5
67893;DHT22;54688;52.376;16.744;2023-04-25T11:52:24;11.2;56.2
67893;DHT22;54688;52.376;16.744;2023-04-25T11:55:26;11.1;57.6
67893;DHT22;54688;52.376;16.744;2023-04-25T11:58:32;11;57.7
67893;DHT22;54688;52.376;16.744;2023-04-25T12:01:34;10.9;56.9
67893;DHT22;54688;52.376;16.744;2023-04-25T12:04:37;10.9;56.7
67893;DHT22;54688;52.376;16.744;2023-04-25T12:07:42;11;56.3
67893;DHT22;54688;52.376;16.744;2023-04-25T12:10:45;11.2;56.6
67893;DHT22;54688;52.376;16.744;2023-04-25T12:13:51;11.4;55.1
67893;DHT22;54688;52.376;16.744;2023-04-25T12:16:54;11.6;52.2
67893;DHT22;54688;52.376;16.744;2023-04-25T12:19:58;11.6;54
67893;DHT22;54688;52.376;16.744;2023-04-25T12:23:00;11.7;54.4
67893;DHT22;54688;52.376;16.744;2023-04-25T12:26:01;11.7;53.8
67893;DHT22;54688;52.376;16.744;2023-04-25T12:29:14;11.6;54
67893;DHT22;54688;52.376;16.744;2023-04-25T12:32:17;11.4;56.7
67893;DHT22;54688;52.376;16.744;2023-04-25T12:35:19;11.2;59.9
67893;DHT22;54688;52.376;16.744;2023-04-25T12:38:21;10.9;62
67893;DHT22;54688;52.376;16.744;2023-04-25T12:41:24;10.6;63.7
67893;DHT22;54688;52.376;16.744;2023-04-25T12:44:26;10.4;65.2
67893;DHT22;54688;52.376;16.744;2023-04-25T12:47:28;10.3;65.8
67893;DHT22;54688;52.376;16.744;2023-04-25T12:50:30;10.4;67.3
67893;DHT22;54688;52.376;16.744;2023-04-25T12:53:32;10.6;65
67893;DHT22;54688;52.376;16.744;2023-04-25T12:56:34;10.7;62.8
67893;DHT22;54688;52.376;16.744;2023-04-25T12:59:36;10.8;62
67893;DHT22;54688;52.376;16.744;2023-04-25T13:02:38;11;61.4
67893;DHT22;54688;52.376;16.744;2023-04-25T13:05:39;11.2;58.8
67893;DHT22;54688;52.376;16.744;2023-04-25T13:08:42;11.2;58
67893;DHT22;54688;52.376;16.744;2023-04-25T13:11:44;11.2;58
67893;DHT22;54688;52.376;16.744;2023-04-25T13:14:46;11.1;56.8
67893;DHT22;54688;52.376;16.744;2023-04-25T13:17:47;10.9;58.4
67893;DHT22;54688;52.376;16.744;2023-04-25T13:20:49;10.6;57.2
67893;DHT22;54688;52.376;16.744;2023-04-25T13:23:51;10.4;56.9
67893;DHT22;54688;52.376;16.744;2023-04-25T13:26:53;10.4;58.1
67893;DHT22;54688;52.376;16.744;2023-04-25T13:29:55;10.3;58
67893;DHT22;54688;52.376;16.744;2023-04-25T13:32:56;10.3;58.4
67893;DHT22;54688;52.376;16.744;2023-04-25T13:35:59;10.3;58.8
67893;DHT22;54688;52.376;16.744;2023-04-25T13:39:02;10.4;59.3
67893;DHT22;54688;52.376;16.744;2023-04-25T13:42:04;10.5;58.9
67893;DHT22;54688;52.376;16.744;2023-04-25T13:45:07;10.6;59.2
67893;DHT22;54688;52.376;16.744;2023-04-25T13:48:09;10.7;59.1
67893;DHT22;54688;52.376;16.744;2023-04-25T13:51:13;10.8;57.9
67893;DHT22;54688;52.376;16.744;2023-04-25T13:54:15;10.9;58.6
67893;DHT22;54688;52.376;16.744;2023-04-25T13:57:17;11;58.7
67893;DHT22;54688;52.376;16.744;2023-04-25T14:00:19;11.2;59.2
67893;DHT22;54688;52.376;16.744;2023-04-25T14:03:21;11.4;58.9
67893;DHT22;54688;52.376;16.744;2023-04-25T14:06:23;11.6;57.8
67893;DHT22;54688;52.376;16.744;2023-04-25T14:09:25;11.7;57.3
67893;DHT22;54688;52.376;16.744;2023-04-25T14:12:27;11.8;56.6
67893;DHT22;54688;52.376;16.744;2023-04-25T14:15:29;11.9;54.1
67893;DHT22;54688;52.376;16.744;2023-04-25T14:18:32;11.8;53.1
67893;DHT22;54688;52.376;16.744;2023-04-25T14:21:33;11.6;53.5
67893;DHT22;54688;52.376;16.744;2023-04-25T14:24:35;11.4;53.8
67893;DHT22;54688;52.376;16.744;2023-04-25T14:27:37;11.2;55.2
67893;DHT22;54688;52.376;16.744;2023-04-25T14:30:39;11;54.5
67893;DHT22;54688;52.376;16.744;2023-04-25T14:33:41;10.9;55.3
67893;DHT22;54688;52.376;16.744;2023-04-25T14:36:42;10.9;55.7
67893;DHT22;54688;52.376;16.744;2023-04-25T14:39:44;11;56.2
67893;DHT22;54688;52.376;16.744;2023-04-25T14:42:46;11;56
67893;DHT22;54688;52.376;16.744;2023-04-25T14:45:48;11.1;56
67893;DHT22;54688;52.376;16.744;2023-04-25T14:48:50;11.2;54.3
67893;DHT22;54688;52.376;16.744;2023-04-25T14:51:52;11.2;53
67893;DHT22;54688;52.376;16.744;2023-04-25T14:54:54;11.3;51.8
67893;DHT22;54688;52.376;16.744;2023-04-25T14:57:56;11.3;51
67893;DHT22;54688;52.376;16.744;2023-04-25T15:00:58;11.3;51.2
67893;DHT22;54688;52.376;16.744;2023-04-25T15:04:00;11.4;51.4
67893;DHT22;54688;52.376;16.744;2023-04-25T15:07:03;11.3;51
67893;DHT22;54688;52.376;16.744;2023-04-25T15:10:06;11.2;50.8
67893;DHT22;54688;52.376;16.744;2023-04-25T15:13:09;11.1;51.5
67893;DHT22;54688;52.376;16.744;2023-04-25T15:16:11;11;52.1
67893;DHT22;54688;52.376;16.744;2023-04-25T15:19:14;11;52.4
67893;DHT22;54688;52.376;16.744;2023-04-25T15:22:16;10.9;52.3
67893;DHT22;54688;52.376;16.744;2023-04-25T15:25:18;10.8;53
67893;DHT22;54688;52.376;16.744;2023-04-25T15:28:20;10.6;54.3
67893;DHT22;54688;52.376;16.744;2023-04-25T15:31:22;10.5;55
67893;DHT22;54688;52.376;16.744;2023-04-25T15:34:24;10.4;56.8
67893;DHT22;54688;52.376;16.744;2023-04-25T15:37:26;10.2;58.5
67893;DHT22;54688;52.376;16.744;2023-04-25T15:40:28;10;58.6
67893;DHT22;54688;52.376;16.744;2023-04-25T15:43:30;9.9;58.2
67893;DHT22;54688;52.376;16.744;2023-04-25T15:46:31;9.9;58.4
67893;DHT22;54688;52.376;16.744;2023-04-25T15:49:33;10;56.7
67893;DHT22;54688;52.376;16.744;2023-04-25T15:52:36;10;56.9
67893;DHT22;54688;52.376;16.744;2023-04-25T15:55:39;10;56.5
67893;DHT22;54688;52.376;16.744;2023-04-25T15:58:41;10.1;56.7
67893;DHT22;54688;52.376;16.744;2023-04-25T16:01:43;10.1;55.3
67893;DHT22;54688;52.376;16.744;2023-04-25T16:04:45;10;54
67893;DHT22;54688;52.376;16.744;2023-04-25T16:07:47;10;52.9
67893;DHT22;54688;52.376;16.744;2023-04-25T16:10:49;10;52.8
67893;DHT22;54688;52.376;16.744;2023-04-25T16:13:52;10;53.2
67893;DHT22;54688;52.376;16.744;2023-04-25T16:16:53;10;52.2
67893;DHT22;54688;52.376;16.744;2023-04-25T16:19:55;10;52.1
67893;DHT22;54688;52.376;16.744;2023-04-25T16:22:57;10.1;51.6
67893;DHT22;54688;52.376;16.744;2023-04-25T16:25:59;10;52.4
67893;DHT22;54688;52.376;16.744;2023-04-25T16:29:01;10;52.3
67893;DHT22;54688;52.376;16.744;2023-04-25T16:32:04;9.9;52.9
67893;DHT22;54688;52.376;16.744;2023-04-25T16:35:06;9.9;53
67893;DHT22;54688;52.376;16.744;2023-04-25T16:38:09;9.9;53.2
67893;DHT22;54688;52.376;16.744;2023-04-25T16:41:12;10;52.6
67893;DHT22;54688;52.376;16.744;2023-04-25T16:44:13;9.9;52.2
67893;DHT22;54688;52.376;16.744;2023-04-25T16:47:15;9.8;49.9
67893;DHT22;54688;52.376;16.744;2023-04-25T16:50:18;9.9;49.5
67893;DHT22;54688;52.376;16.744;2023-04-25T16:53:21;9.8;48.4
67893;DHT22;54688;52.376;16.744;2023-04-25T16:56:23;9.8;48.8
67893;DHT22;54688;52.376;16.744;2023-04-25T16:59:25;9.8;49.5
67893;DHT22;54688;52.376;16.744;2023-04-25T17:02:27;9.7;49.7
67893;DHT22;54688;52.376;16.744;2023-04-25T17:05:29;9.6;50
67893;DHT22;54688;52.376;16.744;2023-04-25T17:08:31;9.5;49.9
67893;DHT22;54688;52.376;16.744;2023-04-25T17:11:33;9.4;50.4
67893;DHT22;54688;52.376;16.744;2023-04-25T17:14:35;9.3;50.8
67893;DHT22;54688;52.376;16.744;2023-04-25T17:17:37;9.2;51.1
67893;DHT22;54688;52.376;16.744;2023-04-25T17:20:39;9.1;51.5
67893;DHT22;54688;52.376;16.744;2023-04-25T17:23:41;9;51.5
67893;DHT22;54688;52.376;16.744;2023-04-25T17:26:43;8.9;51.4
67893;DHT22;54688;52.376;16.744;2023-04-25T17:29:45;8.8;52.3
67893;DHT22;54688;52.376;16.744;2023-04-25T17:32:47;8.7;52.8
67893;DHT22;54688;52.376;16.744;2023-04-25T17:35:49;8.6;52.8
67893;DHT22;54688;52.376;16.744;2023-04-25T17:38:51;8.5;53
67893;DHT22;54688;52.376;16.744;2023-04-25T17:41:53;8.4;53.4
67893;DHT22;54688;52.376;16.744;2023-04-25T17:44:54;8.3;53.5
67893;DHT22;54688;52.376;16.744;2023-04-25T17:47:56;8.3;53.8
67893;DHT22;54688;52.376;16.744;2023-04-25T17:50:59;8.2;53.9
67893;DHT22;54688;52.376;16.744;2023-04-25T17:54:01;8.1;53.6
67893;DHT22;54688;52.376;16.744;2023-04-25T17:57:02;8;53.7
67893;DHT22;54688;52.376;16.744;2023-04-25T18:00:06;8;53.2
67893;DHT22;54688;52.376;16.744;2023-04-25T18:03:09;7.8;53.6
67893;DHT22;54688;52.376;16.744;2023-04-25T18:06:11;7.8;52
67893;DHT22;54688;52.376;16.744;2023-04-25T18:09:13;7.7;51.9
67893;DHT22;54688;52.376;16.744;2023-04-25T18:12:15;7.6;51.7
67893;DHT22;54688;52.376;16.744;2023-04-25T18:15:17;7.6;51.8
67893;DHT22;54688;52.376;16.744;2023-04-25T18:18:19;7.5;51.6
67893;DHT22;54688;52.376;16.744;2023-04-25T18:21:21;7.4;51.7
67893;DHT22;54688;52.376;16.744;2023-04-25T18:24:23;7.3;51.7
67893;DHT22;54688;52.376;16.744;2023-04-25T18:27:26;7.2;51.5
67893;DHT22;54688;52.376;16.744;2023-04-25T18:30:29;7.1;52.4
67893;DHT22;54688;52.376;16.744;2023-04-25T18:33:30;7.1;52
67893;DHT22;54688;52.376;16.744;2023-04-25T18:36:33;7;52.4
67893;DHT22;54688;52.376;16.744;2023-04-25T18:39:36;6.9;52.5
67893;DHT22;54688;52.376;16.744;2023-04-25T18:42:38;6.9;52.9
67893;DHT22;54688;52.376;16.744;2023-04-25T18:45:40;6.8;53.1
67893;DHT22;54688;52.376;16.744;2023-04-25T18:48:42;6.8;53.6
67893;DHT22;54688;52.376;16.744;2023-04-25T18:51:44;6.7;54.1
67893;DHT22;54688;52.376;16.744;2023-04-25T18:54:46;6.6;54.4
67893;DHT22;54688;52.376;16.744;2023-04-25T18:57:47;6.5;54.9
67893;DHT22;54688;52.376;16.744;2023-04-25T19:00:49;6.5;55.1
67893;DHT22;54688;52.376;16.744;2023-04-25T19:03:52;6.4;55.3
67893;DHT22;54688;52.376;16.744;2023-04-25T19:06:54;6.4;55.1
67893;DHT22;54688;52.376;16.744;2023-04-25T19:09:56;6.3;54.8
67893;DHT22;54688;52.376;16.744;2023-04-25T19:12:58;6.3;54.7
67893;DHT22;54688;52.376;16.744;2023-04-25T19:16:00;6.3;54.2
67893;DHT22;54688;52.376;16.744;2023-04-25T19:19:01;6.3;54
67893;DHT22;54688;52.376;16.744;2023-04-25T19:22:03;6.3;53.8
67893;DHT22;54688;52.376;16.744;2023-04-25T19:25:06;6.3;53.4
67893;DHT22;54688;52.376;16.744;2023-04-25T19:28:08;6.4;53.3
67893;DHT22;54688;52.376;16.744;2023-04-25T19:31:10;6.4;53.2
67893;DHT22;54688;52.376;16.744;2023-04-25T19:34:12;6.4;53.3
67893;DHT22;54688;52.376;16.744;2023-04-25T19:37:14;6.4;52.8
67893;DHT22;54688;52.376;16.744;2023-04-25T19:40:16;6.5;53.3
67893;DHT22;54688;52.376;16.744;2023-04-25T19:43:19;6.5;52.9
67893;DHT22;54688;52.376;16.744;2023-04-25T19:46:20;6.5;52.9
67893;DHT22;54688;52.376;16.744;2023-04-25T19:49:22;6.5;53
67893;DHT22;54688;52.376;16.744;2023-04-25T19:52:24;6.5;53.1
67893;DHT22;54688;52.376;16.744;2023-04-25T19:55:26;6.6;53.2